sensor_id;sensor_type;location;lat;lon;timestamp;P1;durP1;ratioP1;P2;durP2;ratioP2
19280;SDS011;9774;52.034;5.342;2023-06-10T00:00:19;5.82;;;5.13;;
19280;SDS011;9774;52.034;5.342;2023-06-10T00:02:47;8.73;;;5.60;;
19280;SDS011;9774;52.034;5.342;2023-06-10T00:05:16;5.22;;;4.82;;
19280;SDS011;9774;52.034;5.342;2023-06-10T00:07:46;7.82;;;4.97;;
19280;SDS011;9774;52.034;5.342;2023-06-10T00:10:14;8.40;;;5.45;;
19280;SDS011;9774;52.034;5.342;2023-06-10T00:12:41;6.32;;;5.00;;
19280;SDS011;9774;52.034;5.342;2023-06-10T00:15:09;5.65;;;5.15;;
19280;SDS011;9774;52.034;5.342;2023-06-10T00:17:36;6.82;;;5.38;;
19280;SDS011;9774;52.034;5.342;2023-06-10T00:20:05;5.57;;;5.07;;
19280;SDS011;9774;52.034;5.342;2023-06-10T00:22:36;5.53;;;4.95;;
19280;SDS011;9774;52.034;5.342;2023-06-10T00:25:04;5.63;;;5.03;;
19280;SDS011;9774;52.034;5.342;2023-06-10T00:27:32;5.32;;;4.57;;
19280;SDS011;9774;52.034;5.342;2023-06-10T00:30:00;5.32;;;4.82;;
19280;SDS011;9774;52.034;5.342;2023-06-10T00:32:29;5.78;;;4.70;;
19280;SDS011;9774;52.034;5.342;2023-06-10T00:34:56;5.35;;;4.85;;
19280;SDS011;9774;52.034;5.342;2023-06-10T00:37:24;5.28;;;4.63;;
19280;SDS011;9774;52.034;5.342;2023-06-10T00:39:52;5.95;;;4.60;;
19280;SDS011;9774;52.034;5.342;2023-06-10T00:42:20;6.72;;;4.80;;
19280;SDS011;9774;52.034;5.342;2023-06-10T00:44:49;6.97;;;4.93;;
19280;SDS011;9774;52.034;5.342;2023-06-10T00:47:16;7.28;;;4.75;;
19280;SDS011;9774;52.034;5.342;2023-06-10T00:49:44;6.63;;;4.68;;
19280;SDS011;9774;52.034;5.342;2023-06-10T00:52:12;5.47;;;4.68;;
19280;SDS011;9774;52.034;5.342;2023-06-10T00:54:41;6.53;;;4.95;;
19280;SDS011;9774;52.034;5.342;2023-06-10T00:57:11;5.55;;;4.55;;
19280;SDS011;9774;52.034;5.342;2023-06-10T00:59:39;5.13;;;4.63;;
19280;SDS011;9774;52.034;5.342;2023-06-10T01:02:06;4.72;;;4.22;;
19280;SDS011;9774;52.034;5.342;2023-06-10T01:04:34;5.90;;;4.65;;
19280;SDS011;9774;52.034;5.342;2023-06-10T01:07:04;5.82;;;4.63;;
19280;SDS011;9774;52.034;5.342;2023-06-10T01:09:41;5.00;;;4.50;;
19280;SDS011;9774;52.034;5.342;2023-06-10T01:12:16;6.57;;;3.97;;
19280;SDS011;9774;52.034;5.342;2023-06-10T01:14:52;4.65;;;4.20;;
19280;SDS011;9774;52.034;5.342;2023-06-10T01:17:21;5.18;;;4.28;;
19280;SDS011;9774;52.034;5.342;2023-06-10T01:19:52;5.03;;;4.47;;
19280;SDS011;9774;52.034;5.342;2023-06-10T01:22:23;7.55;;;4.40;;
19280;SDS011;9774;52.034;5.342;2023-06-10T01:24:51;7.45;;;4.88;;
19280;SDS011;9774;52.034;5.342;2023-06-10T01:27:19;7.22;;;4.38;;
19280;SDS011;9774;52.034;5.342;2023-06-10T01:29:50;7.07;;;4.70;;
19280;SDS011;9774;52.034;5.342;2023-06-10T01:32:23;4.50;;;3.75;;
19280;SDS011;9774;52.034;5.342;2023-06-10T01:34:58;5.30;;;4.35;;
19280;SDS011;9774;52.034;5.342;2023-06-10T01:37:29;5.45;;;4.40;;
19280;SDS011;9774;52.034;5.342;2023-06-10T01:39:57;4.50;;;3.85;;
19280;SDS011;9774;52.034;5.342;2023-06-10T01:42:25;4.72;;;3.85;;
19280;SDS011;9774;52.034;5.342;2023-06-10T01:44:53;5.60;;;4.28;;
19280;SDS011;9774;52.034;5.342;2023-06-10T01:47:20;6.57;;;4.25;;
19280;SDS011;9774;52.034;5.342;2023-06-10T01:49:47;7.57;;;4.15;;
19280;SDS011;9774;52.034;5.342;2023-06-10T01:52:15;5.50;;;3.65;;
19280;SDS011;9774;52.034;5.342;2023-06-10T01:54:43;4.80;;;3.90;;
19280;SDS011;9774;52.034;5.342;2023-06-10T01:57:11;6.90;;;3.90;;
19280;SDS011;9774;52.034;5.342;2023-06-10T01:59:38;4.47;;;4.05;;
19280;SDS011;9774;52.034;5.342;2023-06-10T02:02:07;4.82;;;3.70;;
19280;SDS011;9774;52.034;5.342;2023-06-10T02:04:34;4.13;;;3.72;;
19280;SDS011;9774;52.034;5.342;2023-06-10T02:07:01;4.18;;;3.67;;
19280;SDS011;9774;52.034;5.342;2023-06-10T02:09:30;3.90;;;3.42;;
19280;SDS011;9774;52.034;5.342;2023-06-10T02:12:01;5.50;;;3.58;;
19280;SDS011;9774;52.034;5.342;2023-06-10T02:14:29;5.35;;;3.97;;
19280;SDS011;9774;52.034;5.342;2023-06-10T02:16:58;5.13;;;3.80;;
19280;SDS011;9774;52.034;5.342;2023-06-10T02:19:26;5.28;;;3.95;;
19280;SDS011;9774;52.034;5.342;2023-06-10T02:21:53;5.18;;;3.92;;
19280;SDS011;9774;52.034;5.342;2023-06-10T02:24:20;5.63;;;3.97;;
19280;SDS011;9774;52.034;5.342;2023-06-10T02:26:48;6.20;;;3.80;;
19280;SDS011;9774;52.034;5.342;2023-06-10T02:29:18;5.43;;;3.72;;
19280;SDS011;9774;52.034;5.342;2023-06-10T02:31:45;5.88;;;3.70;;
19280;SDS011;9774;52.034;5.342;2023-06-10T02:34:13;5.82;;;3.97;;
19280;SDS011;9774;52.034;5.342;2023-06-10T02:36:40;4.03;;;3.58;;
19280;SDS011;9774;52.034;5.342;2023-06-10T02:39:08;4.10;;;3.70;;
19280;SDS011;9774;52.034;5.342;2023-06-10T02:41:38;5.70;;;3.33;;
19280;SDS011;9774;52.034;5.342;2023-06-10T02:44:05;5.88;;;3.50;;
19280;SDS011;9774;52.034;5.342;2023-06-10T02:46:34;5.72;;;3.75;;
19280;SDS011;9774;52.034;5.342;2023-06-10T02:49:01;5.65;;;4.13;;
19280;SDS011;9774;52.034;5.342;2023-06-10T02:51:28;4.45;;;3.63;;
19280;SDS011;9774;52.034;5.342;2023-06-10T02:53:55;4.97;;;3.70;;
19280;SDS011;9774;52.034;5.342;2023-06-10T02:56:23;6.00;;;3.75;;
19280;SDS011;9774;52.034;5.342;2023-06-10T02:58:50;9.77;;;3.78;;
19280;SDS011;9774;52.034;5.342;2023-06-10T03:01:18;4.47;;;3.58;;
19280;SDS011;9774;52.034;5.342;2023-06-10T03:03:47;8.63;;;3.60;;
19280;SDS011;9774;52.034;5.342;2023-06-10T03:06:15;4.20;;;3.67;;
19280;SDS011;9774;52.034;5.342;2023-06-10T03:08:43;4.38;;;3.50;;
19280;SDS011;9774;52.034;5.342;2023-06-10T03:11:11;3.97;;;3.17;;
19280;SDS011;9774;52.034;5.342;2023-06-10T03:13:38;5.88;;;3.50;;
19280;SDS011;9774;52.034;5.342;2023-06-10T03:16:05;5.93;;;3.88;;
19280;SDS011;9774;52.034;5.342;2023-06-10T03:18:33;4.28;;;3.47;;
19280;SDS011;9774;52.034;5.342;2023-06-10T03:21:01;6.43;;;3.65;;
19280;SDS011;9774;52.034;5.342;2023-06-10T03:23:29;4.78;;;3.42;;
19280;SDS011;9774;52.034;5.342;2023-06-10T03:25:57;4.30;;;3.50;;
19280;SDS011;9774;52.034;5.342;2023-06-10T03:28:25;3.90;;;3.15;;
19280;SDS011;9774;52.034;5.342;2023-06-10T03:30:52;4.87;;;3.77;;
19280;SDS011;9774;52.034;5.342;2023-06-10T03:33:20;6.50;;;3.60;;
19280;SDS011;9774;52.034;5.342;2023-06-10T03:35:47;3.90;;;2.92;;
19280;SDS011;9774;52.034;5.342;2023-06-10T03:38:16;4.32;;;3.90;;
19280;SDS011;9774;52.034;5.342;2023-06-10T03:40:43;7.47;;;3.42;;
19280;SDS011;9774;52.034;5.342;2023-06-10T03:43:11;3.80;;;3.22;;
19280;SDS011;9774;52.034;5.342;2023-06-10T03:45:38;4.88;;;3.28;;
19280;SDS011;9774;52.034;5.342;2023-06-10T03:48:06;5.03;;;3.92;;
19280;SDS011;9774;52.034;5.342;2023-06-10T03:50:34;6.07;;;3.75;;
19280;SDS011;9774;52.034;5.342;2023-06-10T03:53:01;6.18;;;3.78;;
19280;SDS011;9774;52.034;5.342;2023-06-10T03:55:30;4.88;;;3.83;;
19280;SDS011;9774;52.034;5.342;2023-06-10T03:57:58;7.78;;;4.03;;
19280;SDS011;9774;52.034;5.342;2023-06-10T04:00:25;5.70;;;3.78;;
19280;SDS011;9774;52.034;5.342;2023-06-10T04:02:53;4.57;;;3.50;;
19280;SDS011;9774;52.034;5.342;2023-06-10T04:05:23;4.05;;;3.38;;
19280;SDS011;9774;52.034;5.342;2023-06-10T04:07:50;5.05;;;4.00;;
19280;SDS011;9774;52.034;5.342;2023-06-10T04:10:18;5.55;;;4.32;;
19280;SDS011;9774;52.034;5.342;2023-06-10T04:12:47;6.10;;;4.40;;
19280;SDS011;9774;52.034;5.342;2023-06-10T04:15:14;5.38;;;3.42;;
19280;SDS011;9774;52.034;5.342;2023-06-10T04:17:41;5.88;;;3.72;;
19280;SDS011;9774;52.034;5.342;2023-06-10T04:20:09;5.35;;;3.85;;
19280;SDS011;9774;52.034;5.342;2023-06-10T04:22:36;7.63;;;3.55;;
19280;SDS011;9774;52.034;5.342;2023-06-10T04:25:04;4.80;;;3.50;;
19280;SDS011;9774;52.034;5.342;2023-06-10T04:27:32;4.82;;;3.63;;
19280;SDS011;9774;52.034;5.342;2023-06-10T04:30:01;5.25;;;3.88;;
19280;SDS011;9774;52.034;5.342;2023-06-10T04:32:29;5.55;;;3.65;;
19280;SDS011;9774;52.034;5.342;2023-06-10T04:34:56;5.82;;;3.50;;
19280;SDS011;9774;52.034;5.342;2023-06-10T04:37:23;6.00;;;3.42;;
19280;SDS011;9774;52.034;5.342;2023-06-10T04:39:51;4.70;;;3.78;;
19280;SDS011;9774;52.034;5.342;2023-06-10T04:42:18;4.78;;;3.33;;
19280;SDS011;9774;52.034;5.342;2023-06-10T04:44:45;4.28;;;3.22;;
19280;SDS011;9774;52.034;5.342;2023-06-10T04:47:14;4.25;;;3.15;;
19280;SDS011;9774;52.034;5.342;2023-06-10T04:49:42;5.18;;;3.88;;
19280;SDS011;9774;52.034;5.342;2023-06-10T04:52:09;3.55;;;3.15;;
19280;SDS011;9774;52.034;5.342;2023-06-10T04:54:37;6.22;;;3.42;;
19280;SDS011;9774;52.034;5.342;2023-06-10T04:57:05;6.55;;;3.63;;
19280;SDS011;9774;52.034;5.342;2023-06-10T04:59:33;6.38;;;3.33;;
19280;SDS011;9774;52.034;5.342;2023-06-10T05:02:02;5.28;;;3.80;;
19280;SDS011;9774;52.034;5.342;2023-06-10T05:04:31;4.30;;;3.50;;
19280;SDS011;9774;52.034;5.342;2023-06-10T05:06:59;7.25;;;4.30;;
19280;SDS011;9774;52.034;5.342;2023-06-10T05:09:26;4.80;;;3.55;;
19280;SDS011;9774;52.034;5.342;2023-06-10T05:11:53;6.45;;;3.90;;
19280;SDS011;9774;52.034;5.342;2023-06-10T05:14:21;6.90;;;4.25;;
19280;SDS011;9774;52.034;5.342;2023-06-10T05:16:48;6.35;;;4.25;;
19280;SDS011;9774;52.034;5.342;2023-06-10T05:19:15;4.75;;;3.28;;
19280;SDS011;9774;52.034;5.342;2023-06-10T05:21:44;5.97;;;3.92;;
19280;SDS011;9774;52.034;5.342;2023-06-10T05:24:12;4.53;;;3.50;;
19280;SDS011;9774;52.034;5.342;2023-06-10T05:26:39;4.22;;;3.33;;
19280;SDS011;9774;52.034;5.342;2023-06-10T05:29:07;5.78;;;4.05;;
19280;SDS011;9774;52.034;5.342;2023-06-10T05:31:35;3.90;;;3.40;;
19280;SDS011;9774;52.034;5.342;2023-06-10T05:34:02;5.50;;;4.15;;
19280;SDS011;9774;52.034;5.342;2023-06-10T05:36:29;5.93;;;3.80;;
19280;SDS011;9774;52.034;5.342;2023-06-10T05:38:58;5.18;;;3.60;;
19280;SDS011;9774;52.034;5.342;2023-06-10T05:41:26;4.13;;;3.55;;
19280;SDS011;9774;52.034;5.342;2023-06-10T05:43:53;6.03;;;3.92;;
19280;SDS011;9774;52.034;5.342;2023-06-10T05:46:20;5.22;;;4.35;;
19280;SDS011;9774;52.034;5.342;2023-06-10T05:48:47;6.28;;;3.83;;
19280;SDS011;9774;52.034;5.342;2023-06-10T05:51:15;5.20;;;3.13;;
19280;SDS011;9774;52.034;5.342;2023-06-10T05:53:42;5.97;;;3.95;;
19280;SDS011;9774;52.034;5.342;2023-06-10T05:56:12;5.57;;;3.72;;
19280;SDS011;9774;52.034;5.342;2023-06-10T05:58:40;5.85;;;3.53;;
19280;SDS011;9774;52.034;5.342;2023-06-10T06:01:07;3.63;;;3.30;;
19280;SDS011;9774;52.034;5.342;2023-06-10T06:03:34;4.18;;;3.53;;
19280;SDS011;9774;52.034;5.342;2023-06-10T06:06:02;5.90;;;3.35;;
19280;SDS011;9774;52.034;5.342;2023-06-10T06:08:29;4.57;;;3.50;;
19280;SDS011;9774;52.034;5.342;2023-06-10T06:10:57;5.10;;;3.33;;
19280;SDS011;9774;52.034;5.342;2023-06-10T06:13:25;4.57;;;3.67;;
19280;SDS011;9774;52.034;5.342;2023-06-10T06:15:52;8.57;;;4.55;;
19280;SDS011;9774;52.034;5.342;2023-06-10T06:18:20;5.10;;;3.80;;
19280;SDS011;9774;52.034;5.342;2023-06-10T06:20:47;7.85;;;3.88;;
19280;SDS011;9774;52.034;5.342;2023-06-10T06:23:15;12.38;;;4.18;;
19280;SDS011;9774;52.034;5.342;2023-06-10T06:25:42;4.57;;;3.70;;
19280;SDS011;9774;52.034;5.342;2023-06-10T06:28:10;6.63;;;4.00;;
19280;SDS011;9774;52.034;5.342;2023-06-10T06:30:38;5.78;;;3.97;;
19280;SDS011;9774;52.034;5.342;2023-06-10T06:33:06;4.47;;;3.28;;
19280;SDS011;9774;52.034;5.342;2023-06-10T06:35:33;4.47;;;3.35;;
19280;SDS011;9774;52.034;5.342;2023-06-10T06:38:00;4.82;;;3.33;;
19280;SDS011;9774;52.034;5.342;2023-06-10T06:40:29;4.50;;;3.75;;
19280;SDS011;9774;52.034;5.342;2023-06-10T06:42:56;4.43;;;3.20;;
19280;SDS011;9774;52.034;5.342;2023-06-10T06:45:23;5.80;;;3.60;;
19280;SDS011;9774;52.034;5.342;2023-06-10T06:47:52;6.53;;;3.75;;
19280;SDS011;9774;52.034;5.342;2023-06-10T06:50:20;4.45;;;3.33;;
19280;SDS011;9774;52.034;5.342;2023-06-10T06:52:48;4.65;;;3.85;;
19280;SDS011;9774;52.034;5.342;2023-06-10T06:55:15;5.60;;;3.58;;
19280;SDS011;9774;52.034;5.342;2023-06-10T06:57:42;4.03;;;3.03;;
19280;SDS011;9774;52.034;5.342;2023-06-10T07:00:10;7.47;;;4.03;;
19280;SDS011;9774;52.034;5.342;2023-06-10T07:02:38;5.53;;;3.72;;
19280;SDS011;9774;52.034;5.342;2023-06-10T07:05:07;5.30;;;3.53;;
19280;SDS011;9774;52.034;5.342;2023-06-10T07:07:34;5.40;;;3.38;;
19280;SDS011;9774;52.034;5.342;2023-06-10T07:10:02;8.80;;;4.22;;
19280;SDS011;9774;52.034;5.342;2023-06-10T07:12:29;5.75;;;3.88;;
19280;SDS011;9774;52.034;5.342;2023-06-10T07:14:57;4.63;;;3.58;;
19280;SDS011;9774;52.034;5.342;2023-06-10T07:17:24;4.13;;;3.42;;
19280;SDS011;9774;52.034;5.342;2023-06-10T07:19:52;6.55;;;3.10;;
19280;SDS011;9774;52.034;5.342;2023-06-10T07:22:23;3.70;;;3.30;;
19280;SDS011;9774;52.034;5.342;2023-06-10T07:24:51;9.55;;;3.80;;
19280;SDS011;9774;52.034;5.342;2023-06-10T07:27:20;4.80;;;3.38;;
19280;SDS011;9774;52.034;5.342;2023-06-10T07:29:47;4.50;;;3.20;;
19280;SDS011;9774;52.034;5.342;2023-06-10T07:32:15;5.47;;;3.63;;
19280;SDS011;9774;52.034;5.342;2023-06-10T07:34:42;4.22;;;3.72;;
19280;SDS011;9774;52.034;5.342;2023-06-10T07:37:09;6.13;;;3.58;;
19280;SDS011;9774;52.034;5.342;2023-06-10T07:39:38;5.97;;;3.40;;
19280;SDS011;9774;52.034;5.342;2023-06-10T07:42:06;4.10;;;3.13;;
19280;SDS011;9774;52.034;5.342;2023-06-10T07:44:33;6.63;;;3.42;;
19280;SDS011;9774;52.034;5.342;2023-06-10T07:47:00;5.32;;;3.63;;
19280;SDS011;9774;52.034;5.342;2023-06-10T07:49:28;5.90;;;3.47;;
19280;SDS011;9774;52.034;5.342;2023-06-10T07:51:55;3.95;;;2.80;;
19280;SDS011;9774;52.034;5.342;2023-06-10T07:54:23;6.15;;;3.30;;
19280;SDS011;9774;52.034;5.342;2023-06-10T07:56:51;4.30;;;3.50;;
19280;SDS011;9774;52.034;5.342;2023-06-10T07:59:19;5.13;;;3.55;;
19280;SDS011;9774;52.034;5.342;2023-06-10T08:01:46;5.93;;;3.25;;
19280;SDS011;9774;52.034;5.342;2023-06-10T08:04:13;3.92;;;3.30;;
19280;SDS011;9774;52.034;5.342;2023-06-10T08:06:41;4.30;;;3.63;;
19280;SDS011;9774;52.034;5.342;2023-06-10T08:09:08;5.93;;;4.00;;
19280;SDS011;9774;52.034;5.342;2023-06-10T08:11:35;4.57;;;3.53;;
19280;SDS011;9774;52.034;5.342;2023-06-10T08:14:04;5.03;;;3.58;;
19280;SDS011;9774;52.034;5.342;2023-06-10T08:16:31;5.55;;;4.00;;
19280;SDS011;9774;52.034;5.342;2023-06-10T08:18:58;6.30;;;3.33;;
19280;SDS011;9774;52.034;5.342;2023-06-10T08:21:26;4.78;;;3.50;;
19280;SDS011;9774;52.034;5.342;2023-06-10T08:23:53;3.85;;;3.40;;
19280;SDS011;9774;52.034;5.342;2023-06-10T08:26:21;7.28;;;3.55;;
19280;SDS011;9774;52.034;5.342;2023-06-10T08:28:48;5.68;;;3.35;;
19280;SDS011;9774;52.034;5.342;2023-06-10T08:31:17;4.05;;;3.38;;
19280;SDS011;9774;52.034;5.342;2023-06-10T08:33:44;3.42;;;3.13;;
19280;SDS011;9774;52.034;5.342;2023-06-10T08:36:11;5.82;;;3.47;;
19280;SDS011;9774;52.034;5.342;2023-06-10T08:38:39;5.35;;;3.80;;
19280;SDS011;9774;52.034;5.342;2023-06-10T08:41:06;4.35;;;3.60;;
19280;SDS011;9774;52.034;5.342;2023-06-10T08:43:37;7.22;;;3.70;;
19280;SDS011;9774;52.034;5.342;2023-06-10T08:46:08;4.00;;;3.13;;
19280;SDS011;9774;52.034;5.342;2023-06-10T08:48:39;5.72;;;3.67;;
19280;SDS011;9774;52.034;5.342;2023-06-10T08:51:10;4.35;;;2.97;;
19280;SDS011;9774;52.034;5.342;2023-06-10T08:53:38;4.75;;;3.03;;
19280;SDS011;9774;52.034;5.342;2023-06-10T08:56:12;3.72;;;3.35;;
19280;SDS011;9774;52.034;5.342;2023-06-10T08:58:41;4.60;;;3.28;;
19280;SDS011;9774;52.034;5.342;2023-06-10T09:01:08;3.08;;;2.78;;
19280;SDS011;9774;52.034;5.342;2023-06-10T09:03:37;4.45;;;3.50;;
19280;SDS011;9774;52.034;5.342;2023-06-10T09:06:06;4.47;;;3.72;;
19280;SDS011;9774;52.034;5.342;2023-06-10T09:08:35;4.05;;;2.78;;
19280;SDS011;9774;52.034;5.342;2023-06-10T09:11:02;4.68;;;3.38;;
19280;SDS011;9774;52.034;5.342;2023-06-10T09:13:30;4.90;;;3.28;;
19280;SDS011;9774;52.034;5.342;2023-06-10T09:15:57;4.05;;;2.90;;
19280;SDS011;9774;52.034;5.342;2023-06-10T09:18:26;3.95;;;3.47;;
19280;SDS011;9774;52.034;5.342;2023-06-10T09:20:55;3.60;;;2.47;;
19280;SDS011;9774;52.034;5.342;2023-06-10T09:23:22;5.45;;;3.22;;
19280;SDS011;9774;52.034;5.342;2023-06-10T09:25:55;6.05;;;3.80;;
19280;SDS011;9774;52.034;5.342;2023-06-10T09:28:23;3.83;;;2.88;;
19280;SDS011;9774;52.034;5.342;2023-06-10T09:31:01;4.45;;;3.58;;
19280;SDS011;9774;52.034;5.342;2023-06-10T09:33:29;4.95;;;3.40;;
19280;SDS011;9774;52.034;5.342;2023-06-10T09:35:59;7.07;;;3.80;;
19280;SDS011;9774;52.034;5.342;2023-06-10T09:38:31;4.68;;;3.30;;
19280;SDS011;9774;52.034;5.342;2023-06-10T09:41:00;4.13;;;3.60;;
19280;SDS011;9774;52.034;5.342;2023-06-10T09:43:38;4.40;;;3.47;;
19280;SDS011;9774;52.034;5.342;2023-06-10T09:46:13;5.65;;;3.03;;
19280;SDS011;9774;52.034;5.342;2023-06-10T09:48:42;4.43;;;3.47;;
19280;SDS011;9774;52.034;5.342;2023-06-10T09:51:11;4.55;;;2.90;;
19280;SDS011;9774;52.034;5.342;2023-06-10T09:53:39;4.32;;;3.33;;
19280;SDS011;9774;52.034;5.342;2023-06-10T09:56:06;3.80;;;3.17;;
19280;SDS011;9774;52.034;5.342;2023-06-10T09:58:35;3.15;;;2.85;;
19280;SDS011;9774;52.034;5.342;2023-06-10T10:01:05;4.85;;;3.22;;
19280;SDS011;9774;52.034;5.342;2023-06-10T10:03:37;4.20;;;2.85;;
19280;SDS011;9774;52.034;5.342;2023-06-10T10:06:12;5.35;;;3.72;;
19280;SDS011;9774;52.034;5.342;2023-06-10T10:08:41;4.97;;;3.75;;
19280;SDS011;9774;52.034;5.342;2023-06-10T10:11:09;3.55;;;3.25;;
19280;SDS011;9774;52.034;5.342;2023-06-10T10:13:37;4.13;;;3.28;;
19280;SDS011;9774;52.034;5.342;2023-06-10T10:16:06;4.85;;;3.05;;
19280;SDS011;9774;52.034;5.342;2023-06-10T10:18:38;4.38;;;3.45;;
19280;SDS011;9774;52.034;5.342;2023-06-10T10:21:11;4.07;;;3.45;;
19280;SDS011;9774;52.034;5.342;2023-06-10T10:23:43;4.25;;;3.60;;
19280;SDS011;9774;52.034;5.342;2023-06-10T10:26:17;3.67;;;3.28;;
19280;SDS011;9774;52.034;5.342;2023-06-10T10:28:48;3.90;;;3.42;;
19280;SDS011;9774;52.034;5.342;2023-06-10T10:31:23;3.92;;;3.20;;
19280;SDS011;9774;52.034;5.342;2023-06-10T10:33:54;4.78;;;3.30;;
19280;SDS011;9774;52.034;5.342;2023-06-10T10:36:26;4.13;;;3.22;;
19280;SDS011;9774;52.034;5.342;2023-06-10T10:38:54;5.40;;;3.20;;
19280;SDS011;9774;52.034;5.342;2023-06-10T10:41:22;4.65;;;3.20;;
19280;SDS011;9774;52.034;5.342;2023-06-10T10:43:51;3.53;;;3.17;;
19280;SDS011;9774;52.034;5.342;2023-06-10T10:46:19;5.30;;;3.10;;
19280;SDS011;9774;52.034;5.342;2023-06-10T10:48:50;4.45;;;3.40;;
19280;SDS011;9774;52.034;5.342;2023-06-10T10:51:19;3.88;;;3.10;;
19280;SDS011;9774;52.034;5.342;2023-06-10T10:56:38;3.50;;;3.17;;
19280;SDS011;9774;52.034;5.342;2023-06-10T10:59:26;4.03;;;3.17;;
19280;SDS011;9774;52.034;5.342;2023-06-10T11:02:10;4.68;;;3.28;;
19280;SDS011;9774;52.034;5.342;2023-06-10T11:04:44;3.13;;;2.83;;
19280;SDS011;9774;52.034;5.342;2023-06-10T11:07:12;3.65;;;3.15;;
19280;SDS011;9774;52.034;5.342;2023-06-10T11:09:46;4.55;;;3.20;;
19280;SDS011;9774;52.034;5.342;2023-06-10T11:12:24;3.33;;;3.03;;
19280;SDS011;9774;52.034;5.342;2023-06-10T11:14:53;4.38;;;3.58;;
19280;SDS011;9774;52.034;5.342;2023-06-10T11:17:21;5.00;;;3.42;;
19280;SDS011;9774;52.034;5.342;2023-06-10T11:19:49;4.22;;;3.45;;
19280;SDS011;9774;52.034;5.342;2023-06-10T11:22:16;4.95;;;3.30;;
19280;SDS011;9774;52.034;5.342;2023-06-10T11:24:49;5.05;;;3.60;;
19280;SDS011;9774;52.034;5.342;2023-06-10T11:27:17;4.18;;;3.35;;
19280;SDS011;9774;52.034;5.342;2023-06-10T11:29:54;4.20;;;3.60;;
19280;SDS011;9774;52.034;5.342;2023-06-10T11:32:32;4.07;;;3.70;;
19280;SDS011;9774;52.034;5.342;2023-06-10T11:35:02;4.00;;;3.50;;
19280;SDS011;9774;52.034;5.342;2023-06-10T11:37:30;3.55;;;3.25;;
19280;SDS011;9774;52.034;5.342;2023-06-10T11:39:57;3.63;;;3.28;;
19280;SDS011;9774;52.034;5.342;2023-06-10T11:42:25;4.60;;;3.60;;
19280;SDS011;9774;52.034;5.342;2023-06-10T11:44:53;3.92;;;3.63;;
19280;SDS011;9774;52.034;5.342;2023-06-10T11:47:21;4.40;;;3.63;;
19280;SDS011;9774;52.034;5.342;2023-06-10T11:49:56;3.50;;;3.20;;
19280;SDS011;9774;52.034;5.342;2023-06-10T11:52:26;4.43;;;2.92;;
19280;SDS011;9774;52.034;5.342;2023-06-10T11:54:54;4.40;;;3.55;;
19280;SDS011;9774;52.034;5.342;2023-06-10T11:57:21;3.83;;;3.28;;
19280;SDS011;9774;52.034;5.342;2023-06-10T11:59:48;6.13;;;3.58;;
19280;SDS011;9774;52.034;5.342;2023-06-10T12:02:16;5.40;;;3.50;;
19280;SDS011;9774;52.034;5.342;2023-06-10T12:04:44;4.13;;;3.45;;
19280;SDS011;9774;52.034;5.342;2023-06-10T12:07:18;3.97;;;3.42;;
19280;SDS011;9774;52.034;5.342;2023-06-10T12:09:49;5.05;;;3.72;;
19280;SDS011;9774;52.034;5.342;2023-06-10T12:12:25;3.80;;;3.42;;
19280;SDS011;9774;52.034;5.342;2023-06-10T12:14:54;3.28;;;2.97;;
19280;SDS011;9774;52.034;5.342;2023-06-10T12:17:22;4.95;;;3.33;;
19280;SDS011;9774;52.034;5.342;2023-06-10T12:20:02;3.17;;;2.80;;
19280;SDS011;9774;52.034;5.342;2023-06-10T12:22:37;3.47;;;3.10;;
19280;SDS011;9774;52.034;5.342;2023-06-10T12:25:05;4.22;;;3.38;;
19280;SDS011;9774;52.034;5.342;2023-06-10T12:27:34;3.60;;;3.17;;
19280;SDS011;9774;52.034;5.342;2023-06-10T12:30:03;3.83;;;3.28;;
19280;SDS011;9774;52.034;5.342;2023-06-10T12:32:34;3.05;;;2.75;;
19280;SDS011;9774;52.034;5.342;2023-06-10T12:35:03;4.72;;;3.30;;
19280;SDS011;9774;52.034;5.342;2023-06-10T12:37:31;3.90;;;3.30;;
19280;SDS011;9774;52.034;5.342;2023-06-10T12:40:01;5.65;;;3.13;;
19280;SDS011;9774;52.034;5.342;2023-06-10T12:42:29;4.28;;;2.95;;
19280;SDS011;9774;52.034;5.342;2023-06-10T12:44:58;3.42;;;2.97;;
19280;SDS011;9774;52.034;5.342;2023-06-10T12:47:29;4.82;;;3.40;;
19280;SDS011;9774;52.034;5.342;2023-06-10T12:50:01;4.35;;;3.30;;
19280;SDS011;9774;52.034;5.342;2023-06-10T12:52:30;3.53;;;3.22;;
19280;SDS011;9774;52.034;5.342;2023-06-10T12:54:57;3.33;;;3.03;;
19280;SDS011;9774;52.034;5.342;2023-06-10T12:57:27;4.43;;;3.03;;
19280;SDS011;9774;52.034;5.342;2023-06-10T12:59:54;3.80;;;3.40;;
19280;SDS011;9774;52.034;5.342;2023-06-10T13:02:22;4.25;;;3.30;;
19280;SDS011;9774;52.034;5.342;2023-06-10T13:04:49;4.00;;;3.40;;
19280;SDS011;9774;52.034;5.342;2023-06-10T13:07:17;3.03;;;2.72;;
19280;SDS011;9774;52.034;5.342;2023-06-10T13:09:44;4.45;;;3.38;;
19280;SDS011;9774;52.034;5.342;2023-06-10T13:12:13;9.80;;;3.15;;
19280;SDS011;9774;52.034;5.342;2023-06-10T13:14:44;4.65;;;3.53;;
19280;SDS011;9774;52.034;5.342;2023-06-10T13:17:11;3.47;;;3.17;;
19280;SDS011;9774;52.034;5.342;2023-06-10T13:19:38;3.28;;;2.97;;
19280;SDS011;9774;52.034;5.342;2023-06-10T13:22:06;4.15;;;3.55;;
19280;SDS011;9774;52.034;5.342;2023-06-10T13:24:33;5.90;;;3.60;;
19280;SDS011;9774;52.034;5.342;2023-06-10T13:27:00;3.22;;;2.80;;
19280;SDS011;9774;52.034;5.342;2023-06-10T13:29:28;4.10;;;3.38;;
19280;SDS011;9774;52.034;5.342;2023-06-10T13:31:57;3.50;;;3.15;;
19280;SDS011;9774;52.034;5.342;2023-06-10T13:34:24;4.53;;;3.15;;
19280;SDS011;9774;52.034;5.342;2023-06-10T13:36:51;4.22;;;3.42;;
19280;SDS011;9774;52.034;5.342;2023-06-10T13:39:19;4.53;;;3.88;;
19280;SDS011;9774;52.034;5.342;2023-06-10T13:41:46;3.78;;;3.45;;
19280;SDS011;9774;52.034;5.342;2023-06-10T13:44:13;4.13;;;3.55;;
19280;SDS011;9774;52.034;5.342;2023-06-10T13:46:41;4.25;;;3.38;;
19280;SDS011;9774;52.034;5.342;2023-06-10T13:49:09;4.63;;;3.63;;
19280;SDS011;9774;52.034;5.342;2023-06-10T13:51:36;4.05;;;3.50;;
19280;SDS011;9774;52.034;5.342;2023-06-10T13:54:04;3.83;;;3.30;;
19280;SDS011;9774;52.034;5.342;2023-06-10T13:56:31;4.03;;;3.47;;
19280;SDS011;9774;52.034;5.342;2023-06-10T13:59:02;3.70;;;3.40;;
19280;SDS011;9774;52.034;5.342;2023-06-10T14:01:30;3.88;;;3.47;;
19280;SDS011;9774;52.034;5.342;2023-06-10T14:03:58;4.93;;;3.35;;
19280;SDS011;9774;52.034;5.342;2023-06-10T14:06:26;4.97;;;3.25;;
19280;SDS011;9774;52.034;5.342;2023-06-10T14:08:54;3.30;;;3.00;;
19280;SDS011;9774;52.034;5.342;2023-06-10T14:11:21;3.60;;;3.30;;
19280;SDS011;9774;52.034;5.342;2023-06-10T14:13:48;5.32;;;2.90;;
19280;SDS011;9774;52.034;5.342;2023-06-10T14:16:16;3.53;;;3.03;;
19280;SDS011;9774;52.034;5.342;2023-06-10T14:18:43;4.97;;;3.92;;
19280;SDS011;9774;52.034;5.342;2023-06-10T14:21:10;3.25;;;2.95;;
19280;SDS011;9774;52.034;5.342;2023-06-10T14:23:39;3.20;;;2.88;;
19280;SDS011;9774;52.034;5.342;2023-06-10T14:26:06;3.80;;;3.40;;
19280;SDS011;9774;52.034;5.342;2023-06-10T14:28:33;4.82;;;3.22;;
19280;SDS011;9774;52.034;5.342;2023-06-10T14:31:01;5.78;;;4.05;;
19280;SDS011;9774;52.034;5.342;2023-06-10T14:33:28;7.22;;;4.03;;
19280;SDS011;9774;52.034;5.342;2023-06-10T14:35:56;3.80;;;3.33;;
19280;SDS011;9774;52.034;5.342;2023-06-10T14:38:23;3.85;;;3.35;;
19280;SDS011;9774;52.034;5.342;2023-06-10T14:40:52;4.57;;;3.30;;
19280;SDS011;9774;52.034;5.342;2023-06-10T14:43:19;3.92;;;3.25;;
19280;SDS011;9774;52.034;5.342;2023-06-10T14:45:47;3.58;;;3.15;;
19280;SDS011;9774;52.034;5.342;2023-06-10T14:48:16;4.03;;;3.30;;
19280;SDS011;9774;52.034;5.342;2023-06-10T14:50:43;4.70;;;3.28;;
19280;SDS011;9774;52.034;5.342;2023-06-10T14:53:15;3.17;;;2.88;;
19280;SDS011;9774;52.034;5.342;2023-06-10T14:55:43;4.03;;;3.60;;
19280;SDS011;9774;52.034;5.342;2023-06-10T14:58:11;4.63;;;3.35;;
19280;SDS011;9774;52.034;5.342;2023-06-10T15:00:39;3.22;;;2.60;;
19280;SDS011;9774;52.034;5.342;2023-06-10T15:03:06;4.07;;;3.55;;
19280;SDS011;9774;52.034;5.342;2023-06-10T15:05:33;3.17;;;2.88;;
19280;SDS011;9774;52.034;5.342;2023-06-10T15:08:02;5.82;;;3.47;;
19280;SDS011;9774;52.034;5.342;2023-06-10T15:10:30;4.97;;;3.75;;